sensor_id;sensor_type;location;lat;lon;timestamp;temperature;humidity
66576;SHT31;53428;47.686;16.584;2024-03-07T00:04:20;6.24;85.61
66576;SHT31;53428;47.686;16.584;2024-03-07T00:09:19;6.22;85.53
66576;SHT31;53428;47.686;16.584;2024-03-07T00:14:23;6.15;85.98
66576;SHT31;53428;47.686;16.584;2024-03-07T00:19:27;6.21;85.92
66576;SHT31;53428;47.686;16.584;2024-03-07T00:24:26;6.21;85.94
66576;SHT31;53428;47.686;16.584;2024-03-07T00:29:26;6.15;86.43
66576;SHT31;53428;47.686;16.584;2024-03-07T00:34:27;6.17;86.63
66576;SHT31;53428;47.686;16.584;2024-03-07T00:39:26;6.14;86.85
66576;SHT31;53428;47.686;16.584;2024-03-07T00:44:26;6.09;86.82
66576;SHT31;53428;47.686;16.584;2024-03-07T00:49:25;5.98;87.52
66576;SHT31;53428;47.686;16.584;2024-03-07T00:54:24;5.81;87.94
66576;SHT31;53428;47.686;16.584;2024-03-07T00:59:24;5.88;88.16
66576;SHT31;53428;47.686;16.584;2024-03-07T01:04:23;5.94;88.18
66576;SHT31;53428;47.686;16.584;2024-03-07T01:09:24;5.86;89.11
66576;SHT31;53428;47.686;16.584;2024-03-07T01:14:23;5.84;89.54
66576;SHT31;53428;47.686;16.584;2024-03-07T01:19:23;5.69;90.19
66576;SHT31;53428;47.686;16.584;2024-03-07T01:24:23;5.64;90.58
66576;SHT31;53428;47.686;16.584;2024-03-07T01:29:23;5.53;91.46
66576;SHT31;53428;47.686;16.584;2024-03-07T01:34:22;5.42;92.52
66576;SHT31;53428;47.686;16.584;2024-03-07T01:39:21;5.44;92.87
66576;SHT31;53428;47.686;16.584;2024-03-07T01:44:20;5.43;93.43
66576;SHT31;53428;47.686;16.584;2024-03-07T01:49:20;5.25;93.93
66576;SHT31;53428;47.686;16.584;2024-03-07T01:54:19;5.07;94.41
66576;SHT31;53428;47.686;16.584;2024-03-07T01:59:19;4.95;95.09
66576;SHT31;53428;47.686;16.584;2024-03-07T02:04:21;4.87;95.38
66576;SHT31;53428;47.686;16.584;2024-03-07T02:09:21;4.81;95.85
66576;SHT31;53428;47.686;16.584;2024-03-07T02:14:20;4.68;96.47
66576;SHT31;53428;47.686;16.584;2024-03-07T02:19:19;4.70;96.82
66576;SHT31;53428;47.686;16.584;2024-03-07T02:24:19;4.74;96.61
66576;SHT31;53428;47.686;16.584;2024-03-07T02:29:20;4.89;96.24
66576;SHT31;53428;47.686;16.584;2024-03-07T02:34:19;4.96;95.98
66576;SHT31;53428;47.686;16.584;2024-03-07T02:39:19;4.99;95.90
66576;SHT31;53428;47.686;16.584;2024-03-07T02:44:20;4.99;96.16
66576;SHT31;53428;47.686;16.584;2024-03-07T02:49:19;5.01;95.98
66576;SHT31;53428;47.686;16.584;2024-03-07T02:54:20;5.01;96.40
66576;SHT31;53428;47.686;16.584;2024-03-07T02:59:19;5.09;96.13
66576;SHT31;53428;47.686;16.584;2024-03-07T03:04:18;5.02;96.08
66576;SHT31;53428;47.686;16.584;2024-03-07T03:09:18;5.08;95.95
66576;SHT31;53428;47.686;16.584;2024-03-07T03:14:17;5.11;95.59
66576;SHT31;53428;47.686;16.584;2024-03-07T03:19:17;5.05;95.73
66576;SHT31;53428;47.686;16.584;2024-03-07T03:24:16;5.13;95.13
66576;SHT31;53428;47.686;16.584;2024-03-07T03:29:16;5.29;94.12
66576;SHT31;53428;47.686;16.584;2024-03-07T03:34:17;5.43;93.26
66576;SHT31;53428;47.686;16.584;2024-03-07T03:39:16;5.43;93.29
66576;SHT31;53428;47.686;16.584;2024-03-07T03:44:15;5.49;92.80
66576;SHT31;53428;47.686;16.584;2024-03-07T03:49:15;5.44;92.95
66576;SHT31;53428;47.686;16.584;2024-03-07T03:54:14;5.35;93.40
66576;SHT31;53428;47.686;16.584;2024-03-07T03:59:14;5.28;93.47
66576;SHT31;53428;47.686;16.584;2024-03-07T04:04:13;5.26;93.59
66576;SHT31;53428;47.686;16.584;2024-03-07T04:09:13;5.28;93.42
66576;SHT31;53428;47.686;16.584;2024-03-07T04:14:14;5.35;93.19
66576;SHT31;53428;47.686;16.584;2024-03-07T04:19:14;5.33;93.28
66576;SHT31;53428;47.686;16.584;2024-03-07T04:24:13;5.32;92.90
66576;SHT31;53428;47.686;16.584;2024-03-07T04:29:12;5.33;92.70
66576;SHT31;53428;47.686;16.584;2024-03-07T04:34:12;5.46;91.74
66576;SHT31;53428;47.686;16.584;2024-03-07T04:39:11;5.44;91.57
66576;SHT31;53428;47.686;16.584;2024-03-07T04:44:21;5.52;91.10
66576;SHT31;53428;47.686;16.584;2024-03-07T04:49:24;5.44;91.63
66576;SHT31;53428;47.686;16.584;2024-03-07T04:54:24;5.43;90.65
66576;SHT31;53428;47.686;16.584;2024-03-07T04:59:24;5.44;90.16
66576;SHT31;53428;47.686;16.584;2024-03-07T05:04:23;5.46;88.56
66576;SHT31;53428;47.686;16.584;2024-03-07T05:09:22;5.40;87.68
66576;SHT31;53428;47.686;16.584;2024-03-07T05:14:22;5.33;87.65
66576;SHT31;53428;47.686;16.584;2024-03-07T05:19:21;5.29;87.86
66576;SHT31;53428;47.686;16.584;2024-03-07T05:24:20;5.28;87.77
66576;SHT31;53428;47.686;16.584;2024-03-07T05:29:20;5.40;87.42
66576;SHT31;53428;47.686;16.584;2024-03-07T05:34:19;5.26;87.93
66576;SHT31;53428;47.686;16.584;2024-03-07T05:39:19;5.38;87.57
66576;SHT31;53428;47.686;16.584;2024-03-07T05:44:18;5.25;87.96
66576;SHT31;53428;47.686;16.584;2024-03-07T05:49:18;5.21;87.91
66576;SHT31;53428;47.686;16.584;2024-03-07T05:54:19;5.29;88.13
66576;SHT31;53428;47.686;16.584;2024-03-07T05:59:18;5.22;88.14
66576;SHT31;53428;47.686;16.584;2024-03-07T06:04:17;5.38;88.00
66576;SHT31;53428;47.686;16.584;2024-03-07T06:09:17;5.33;88.20
66576;SHT31;53428;47.686;16.584;2024-03-07T06:14:20;5.36;87.89
66576;SHT31;53428;47.686;16.584;2024-03-07T06:19:19;5.40;87.82
66576;SHT31;53428;47.686;16.584;2024-03-07T06:24:19;5.26;88.16
66576;SHT31;53428;47.686;16.584;2024-03-07T06:29:18;5.44;87.43
66576;SHT31;53428;47.686;16.584;2024-03-07T06:34:17;5.47;87.68
66576;SHT31;53428;47.686;16.584;2024-03-07T06:39:17;5.59;87.48
66576;SHT31;53428;47.686;16.584;2024-03-07T06:44:20;5.38;87.03
66576;SHT31;53428;47.686;16.584;2024-03-07T06:49:22;5.42;87.22
66576;SHT31;53428;47.686;16.584;2024-03-07T06:54:21;5.38;87.38
66576;SHT31;53428;47.686;16.584;2024-03-07T06:59:20;5.54;86.81
66576;SHT31;53428;47.686;16.584;2024-03-07T07:04:21;5.36;87.10
66576;SHT31;53428;47.686;16.584;2024-03-07T07:09:22;5.19;86.78
66576;SHT31;53428;47.686;16.584;2024-03-07T07:14:21;5.33;87.11
66576;SHT31;53428;47.686;16.584;2024-03-07T07:19:21;5.11;87.56
66576;SHT31;53428;47.686;16.584;2024-03-07T07:24:20;5.07;87.82
66576;SHT31;53428;47.686;16.584;2024-03-07T07:29:22;5.01;87.86
66576;SHT31;53428;47.686;16.584;2024-03-07T07:34:23;5.04;87.94
66576;SHT31;53428;47.686;16.584;2024-03-07T07:39:22;5.23;87.24
66576;SHT31;53428;47.686;16.584;2024-03-07T07:44:21;5.42;86.02
66576;SHT31;53428;47.686;16.584;2024-03-07T07:49:21;5.36;85.41
66576;SHT31;53428;47.686;16.584;2024-03-07T07:54:21;5.94;83.94
66576;SHT31;53428;47.686;16.584;2024-03-07T07:59:20;6.49;83.22
66576;SHT31;53428;47.686;16.584;2024-03-07T08:04:20;6.97;81.57
66576;SHT31;53428;47.686;16.584;2024-03-07T08:09:19;6.90;80.51
66576;SHT31;53428;47.686;16.584;2024-03-07T08:14:18;6.70;80.49
66576;SHT31;53428;47.686;16.584;2024-03-07T08:19:17;6.40;81.23
66576;SHT31;53428;47.686;16.584;2024-03-07T08:24:17;6.33;81.32
66576;SHT31;53428;47.686;16.584;2024-03-07T08:29:16;6.30;80.87
66576;SHT31;53428;47.686;16.584;2024-03-07T08:34:15;6.88;78.61
66576;SHT31;53428;47.686;16.584;2024-03-07T08:39:14;6.94;77.42
66576;SHT31;53428;47.686;16.584;2024-03-07T08:44:14;7.22;77.89
66576;SHT31;53428;47.686;16.584;2024-03-07T08:49:13;7.35;76.73
66576;SHT31;53428;47.686;16.584;2024-03-07T08:54:16;7.18;77.58
66576;SHT31;53428;47.686;16.584;2024-03-07T08:59:15;7.01;77.39
66576;SHT31;53428;47.686;16.584;2024-03-07T09:04:16;7.39;75.84
66576;SHT31;53428;47.686;16.584;2024-03-07T09:09:16;8.00;75.30
66576;SHT31;53428;47.686;16.584;2024-03-07T09:14:16;7.16;75.87
66576;SHT31;53428;47.686;16.584;2024-03-07T09:19:16;6.80;77.05
66576;SHT31;53428;47.686;16.584;2024-03-07T09:24:19;7.19;76.49
66576;SHT31;53428;47.686;16.584;2024-03-07T09:29:22;7.42;76.13
66576;SHT31;53428;47.686;16.584;2024-03-07T09:34:21;7.97;74.74
66576;SHT31;53428;47.686;16.584;2024-03-07T09:39:21;7.77;73.86
66576;SHT31;53428;47.686;16.584;2024-03-07T09:44:21;8.03;73.69
66576;SHT31;53428;47.686;16.584;2024-03-07T09:49:22;8.28;73.61
66576;SHT31;53428;47.686;16.584;2024-03-07T09:54:22;8.59;72.74
66576;SHT31;53428;47.686;16.584;2024-03-07T09:59:24;8.49;72.88
66576;SHT31;53428;47.686;16.584;2024-03-07T10:04:37;8.14;74.15
66576;SHT31;53428;47.686;16.584;2024-03-07T10:09:37;7.67;75.57
66576;SHT31;53428;47.686;16.584;2024-03-07T10:14:37;8.37;74.21
66576;SHT31;53428;47.686;16.584;2024-03-07T10:19:36;8.99;73.41
66576;SHT31;53428;47.686;16.584;2024-03-07T10:24:36;8.69;73.95
66576;SHT31;53428;47.686;16.584;2024-03-07T10:29:35;8.96;72.14
66576;SHT31;53428;47.686;16.584;2024-03-07T10:34:34;8.22;74.01
66576;SHT31;53428;47.686;16.584;2024-03-07T10:39:34;8.65;72.74
66576;SHT31;53428;47.686;16.584;2024-03-07T10:44:36;8.07;73.65
66576;SHT31;53428;47.686;16.584;2024-03-07T10:49:51;8.22;73.80
66576;SHT31;53428;47.686;16.584;2024-03-07T11:00:03;8.34;74.09
66576;SHT31;53428;47.686;16.584;2024-03-07T11:05:26;8.91;73.12
66576;SHT31;53428;47.686;16.584;2024-03-07T11:10:31;8.34;73.31
66576;SHT31;53428;47.686;16.584;2024-03-07T11:15:32;8.14;74.05
66576;SHT31;53428;47.686;16.584;2024-03-07T11:20:36;9.31;70.79
66576;SHT31;53428;47.686;16.584;2024-03-07T11:25:35;9.26;70.88
66576;SHT31;53428;47.686;16.584;2024-03-07T11:30:37;8.77;71.90
66576;SHT31;53428;47.686;16.584;2024-03-07T11:35:37;8.62;71.43
66576;SHT31;53428;47.686;16.584;2024-03-07T11:45:36;9.65;70.41
66576;SHT31;53428;47.686;16.584;2024-03-07T11:50:43;9.28;69.53
66576;SHT31;53428;47.686;16.584;2024-03-07T11:55:43;9.04;71.25
66576;SHT31;53428;47.686;16.584;2024-03-07T12:00:47;9.01;71.95
66576;SHT31;53428;47.686;16.584;2024-03-07T12:05:48;8.69;70.87
66576;SHT31;53428;47.686;16.584;2024-03-07T12:10:47;8.39;73.38
66576;SHT31;53428;47.686;16.584;2024-03-07T12:15:48;8.17;74.71
66576;SHT31;53428;47.686;16.584;2024-03-07T12:20:50;8.08;73.99
66576;SHT31;53428;47.686;16.584;2024-03-07T12:26:03;7.79;75.38
66576;SHT31;53428;47.686;16.584;2024-03-07T12:31:03;7.61;75.76
66576;SHT31;53428;47.686;16.584;2024-03-07T12:36:04;7.63;76.42
66576;SHT31;53428;47.686;16.584;2024-03-07T12:41:08;7.21;77.92
66576;SHT31;53428;47.686;16.584;2024-03-07T12:46:12;7.18;78.79
66576;SHT31;53428;47.686;16.584;2024-03-07T12:51:14;7.15;78.79
66576;SHT31;53428;47.686;16.584;2024-03-07T12:56:16;7.28;78.84
66576;SHT31;53428;47.686;16.584;2024-03-07T13:01:16;7.15;79.02
66576;SHT31;53428;47.686;16.584;2024-03-07T13:06:17;7.04;79.94
66576;SHT31;53428;47.686;16.584;2024-03-07T13:11:25;6.45;82.13
66576;SHT31;53428;47.686;16.584;2024-03-07T13:16:28;6.53;81.04
66576;SHT31;53428;47.686;16.584;2024-03-07T13:21:30;6.45;80.92
66576;SHT31;53428;47.686;16.584;2024-03-07T13:26:31;6.77;79.98
66576;SHT31;53428;47.686;16.584;2024-03-07T13:31:30;6.53;81.18
66576;SHT31;53428;47.686;16.584;2024-03-07T13:36:30;5.84;82.89
66576;SHT31;53428;47.686;16.584;2024-03-07T13:41:29;6.18;82.76
66576;SHT31;53428;47.686;16.584;2024-03-07T13:46:29;6.05;82.80
66576;SHT31;53428;47.686;16.584;2024-03-07T13:51:30;6.29;82.96
66576;SHT31;53428;47.686;16.584;2024-03-07T13:56:42;6.04;82.23
66576;SHT31;53428;47.686;16.584;2024-03-07T14:23:39;4.83;90.60
66576;SHT31;53428;47.686;16.584;2024-03-07T14:38:57;4.49;92.62
66576;SHT31;53428;47.686;16.584;2024-03-07T14:43:57;4.26;92.63
66576;SHT31;53428;47.686;16.584;2024-03-07T14:48:57;4.37;93.90
66576;SHT31;53428;47.686;16.584;2024-03-07T14:53:56;4.40;94.19
66576;SHT31;53428;47.686;16.584;2024-03-07T14:58:57;4.42;93.81
66576;SHT31;53428;47.686;16.584;2024-03-07T15:03:58;4.47;93.58
66576;SHT31;53428;47.686;16.584;2024-03-07T15:08:57;4.46;93.57
66576;SHT31;53428;47.686;16.584;2024-03-07T15:13:58;4.37;93.25
66576;SHT31;53428;47.686;16.584;2024-03-07T15:18:59;4.33;93.17
66576;SHT31;53428;47.686;16.584;2024-03-07T15:23:59;4.39;93.55
66576;SHT31;53428;47.686;16.584;2024-03-07T15:28:58;4.33;94.15
66576;SHT31;53428;47.686;16.584;2024-03-07T15:33:59;4.20;94.70
66576;SHT31;53428;47.686;16.584;2024-03-07T15:38:58;4.15;95.54
66576;SHT31;53428;47.686;16.584;2024-03-07T15:43:58;4.09;96.00
66576;SHT31;53428;47.686;16.584;2024-03-07T15:48:58;4.09;96.56
66576;SHT31;53428;47.686;16.584;2024-03-07T15:53:57;4.09;96.59
66576;SHT31;53428;47.686;16.584;2024-03-07T15:58:57;4.15;96.16
66576;SHT31;53428;47.686;16.584;2024-03-07T16:03:56;4.12;96.29
66576;SHT31;53428;47.686;16.584;2024-03-07T16:08:56;4.16;96.09
66576;SHT31;53428;47.686;16.584;2024-03-07T16:13:55;4.19;96.36
66576;SHT31;53428;47.686;16.584;2024-03-07T16:18:55;4.20;95.46
66576;SHT31;53428;47.686;16.584;2024-03-07T16:23:55;4.25;95.36
66576;SHT31;53428;47.686;16.584;2024-03-07T16:28:55;4.23;95.36
66576;SHT31;53428;47.686;16.584;2024-03-07T16:33:54;4.29;95.31
66576;SHT31;53428;47.686;16.584;2024-03-07T16:38:55;4.35;95.11
66576;SHT31;53428;47.686;16.584;2024-03-07T16:43:54;4.36;94.99
66576;SHT31;53428;47.686;16.584;2024-03-07T16:48:53;4.39;95.03
66576;SHT31;53428;47.686;16.584;2024-03-07T16:53:54;4.39;94.63
66576;SHT31;53428;47.686;16.584;2024-03-07T16:58:54;4.42;94.75
66576;SHT31;53428;47.686;16.584;2024-03-07T17:03:53;4.40;94.47
66576;SHT31;53428;47.686;16.584;2024-03-07T17:08:52;4.39;94.37
66576;SHT31;53428;47.686;16.584;2024-03-07T17:13:53;4.39;94.12
66576;SHT31;53428;47.686;16.584;2024-03-07T17:18:52;4.19;95.45
66576;SHT31;53428;47.686;16.584;2024-03-07T17:23:52;4.08;96.33
66576;SHT31;53428;47.686;16.584;2024-03-07T17:28:51;4.06;96.63
66576;SHT31;53428;47.686;16.584;2024-03-07T17:33:51;3.98;97.82
66576;SHT31;53428;47.686;16.584;2024-03-07T17:38:50;3.94;98.61
66576;SHT31;53428;47.686;16.584;2024-03-07T17:43:53;3.89;99.31
66576;SHT31;53428;47.686;16.584;2024-03-07T17:48:52;3.88;99.72
66576;SHT31;53428;47.686;16.584;2024-03-07T17:53:51;3.89;99.96
66576;SHT31;53428;47.686;16.584;2024-03-07T17:58:54;3.85;99.99
66576;SHT31;53428;47.686;16.584;2024-03-07T18:03:54;3.79;99.99
66576;SHT31;53428;47.686;16.584;2024-03-07T18:08:54;3.81;99.99
66576;SHT31;53428;47.686;16.584;2024-03-07T18:13:55;3.81;99.99
66576;SHT31;53428;47.686;16.584;2024-03-07T18:18:55;3.87;99.99
66576;SHT31;53428;47.686;16.584;2024-03-07T18:23:55;3.84;99.99
66576;SHT31;53428;47.686;16.584;2024-03-07T18:28:54;3.84;99.99
66576;SHT31;53428;47.686;16.584;2024-03-07T18:33:54;3.79;99.99
66576;SHT31;53428;47.686;16.584;2024-03-07T18:38:53;3.81;99.99
66576;SHT31;53428;47.686;16.584;2024-03-07T18:43:52;3.78;99.99
66576;SHT31;53428;47.686;16.584;2024-03-07T18:48:51;3.74;99.99
66576;SHT31;53428;47.686;16.584;2024-03-07T18:53:52;3.74;99.99
66576;SHT31;53428;47.686;16.584;2024-03-07T18:58:52;3.67;99.99
66576;SHT31;53428;47.686;16.584;2024-03-07T19:03:51;3.67;99.99
66576;SHT31;53428;47.686;16.584;2024-03-07T19:08:52;3.67;99.99
66576;SHT31;53428;47.686;16.584;2024-03-07T19:13:51;3.68;99.99
66576;SHT31;53428;47.686;16.584;2024-03-07T19:18:52;3.70;99.99
66576;SHT31;53428;47.686;16.584;2024-03-07T19:23:51;3.60;99.99
66576;SHT31;53428;47.686;16.584;2024-03-07T19:28:52;3.46;99.99
66576;SHT31;53428;47.686;16.584;2024-03-07T19:33:51;3.50;99.99
66576;SHT31;53428;47.686;16.584;2024-03-07T19:38:50;3.53;99.99
66576;SHT31;53428;47.686;16.584;2024-03-07T19:43:51;3.51;99.99
66576;SHT31;53428;47.686;16.584;2024-03-07T19:48:50;3.54;99.99
66576;SHT31;53428;47.686;16.584;2024-03-07T19:53:51;3.54;99.99
66576;SHT31;53428;47.686;16.584;2024-03-07T19:58:52;3.46;99.99
66576;SHT31;53428;47.686;16.584;2024-03-07T20:03:51;3.47;99.62
66576;SHT31;53428;47.686;16.584;2024-03-07T20:08:50;3.44;99.04
66576;SHT31;53428;47.686;16.584;2024-03-07T20:13:50;3.34;99.12
66576;SHT31;53428;47.686;16.584;2024-03-07T20:18:49;3.26;99.17
66576;SHT31;53428;47.686;16.584;2024-03-07T20:23:50;3.19;99.18
66576;SHT31;53428;47.686;16.584;2024-03-07T20:28:50;3.12;99.47
66576;SHT31;53428;47.686;16.584;2024-03-07T20:33:49;3.13;99.61
66576;SHT31;53428;47.686;16.584;2024-03-07T20:38:48;3.06;99.64
66576;SHT31;53428;47.686;16.584;2024-03-07T20:43:48;3.00;99.99
66576;SHT31;53428;47.686;16.584;2024-03-07T20:48:50;2.91;99.99
66576;SHT31;53428;47.686;16.584;2024-03-07T20:53:50;2.84;99.99
66576;SHT31;53428;47.686;16.584;2024-03-07T20:58:50;2.72;99.99
66576;SHT31;53428;47.686;16.584;2024-03-07T21:03:49;2.72;99.99
66576;SHT31;53428;47.686;16.584;2024-03-07T21:08:51;2.66;99.99
66576;SHT31;53428;47.686;16.584;2024-03-07T21:13:51;2.72;99.99
66576;SHT31;53428;47.686;16.584;2024-03-07T21:18:50;2.65;99.99
66576;SHT31;53428;47.686;16.584;2024-03-07T21:23:50;2.70;99.99
66576;SHT31;53428;47.686;16.584;2024-03-07T21:28:49;2.70;99.99
66576;SHT31;53428;47.686;16.584;2024-03-07T21:33:48;2.61;99.99
66576;SHT31;53428;47.686;16.584;2024-03-07T21:38:48;2.58;99.99
66576;SHT31;53428;47.686;16.584;2024-03-07T21:43:48;2.65;99.99
66576;SHT31;53428;47.686;16.584;2024-03-07T21:48:48;2.64;99.99
66576;SHT31;53428;47.686;16.584;2024-03-07T21:53:47;2.55;99.99
66576;SHT31;53428;47.686;16.584;2024-03-07T21:58:46;2.44;99.99
66576;SHT31;53428;47.686;16.584;2024-03-07T22:03:46;2.40;99.99
66576;SHT31;53428;47.686;16.584;2024-03-07T22:08:45;2.41;99.99
66576;SHT31;53428;47.686;16.584;2024-03-07T22:13:46;2.43;99.99
66576;SHT31;53428;47.686;16.584;2024-03-07T22:18:45;2.33;99.99
66576;SHT31;53428;47.686;16.584;2024-03-07T22:23:45;2.37;99.99
66576;SHT31;53428;47.686;16.584;2024-03-07T22:28:45;2.38;99.99
66576;SHT31;53428;47.686;16.584;2024-03-07T22:33:44;2.34;99.99
66576;SHT31;53428;47.686;16.584;2024-03-07T22:38:47;2.38;99.99
66576;SHT31;53428;47.686;16.584;2024-03-07T22:43:46;2.38;99.99
66576;SHT31;53428;47.686;16.584;2024-03-07T22:48:45;2.38;99.99
66576;SHT31;53428;47.686;16.584;2024-03-07T22:53:46;2.41;99.99
66576;SHT31;53428;47.686;16.584;2024-03-07T22:58:45;2.34;99.99
66576;SHT31;53428;47.686;16.584;2024-03-07T23:03:44;2.16;99.99
66576;SHT31;53428;47.686;16.584;2024-03-07T23:08:43;2.14;99.99
66576;SHT31;53428;47.686;16.584;2024-03-07T23:13:43;2.10;99.99
66576;SHT31;53428;47.686;16.584;2024-03-07T23:18:42;2.09;99.99
66576;SHT31;53428;47.686;16.584;2024-03-07T23:23:41;2.19;99.99
66576;SHT31;53428;47.686;16.584;2024-03-07T23:28:40;2.03;99.99
66576;SHT31;53428;47.686;16.584;2024-03-07T23:33:40;2.12;99.99
66576;SHT31;53428;47.686;16.584;2024-03-07T23:38:39;2.14;99.99
66576;SHT31;53428;47.686;16.584;2024-03-07T23:43:38;2.10;99.99
66576;SHT31;53428;47.686;16.584;2024-03-07T23:48:38;2.07;99.99
66576;SHT31;53428;47.686;16.584;2024-03-07T23:53:37;2.12;99.99
66576;SHT31;53428;47.686;16.584;2024-03-07T23:58:37;2.03;99.99
